createdAt,value
2022-10-25T00:13:02.656Z,15.1
2022-10-25T00:28:11.628Z,14.9
2022-10-25T00:43:20.875Z,14.8
2022-10-25T00:58:32.049Z,14.8
2022-10-25T01:13:41.589Z,14.8
2022-10-25T01:28:50.836Z,14.8
2022-10-25T01:44:00.721Z,14.8
2022-10-25T01:59:12.204Z,14.8
2022-10-25T02:14:21.708Z,14.7
2022-10-25T02:29:31.189Z,14.6
2022-10-25T02:44:40.091Z,14.4
2022-10-25T02:59:49.387Z,14.4
2022-10-25T03:14:59.011Z,14.3
2022-10-25T03:30:08.666Z,14.4
2022-10-25T03:45:18.190Z,14.4
2022-10-25T04:00:27.797Z,14.4
2022-10-25T04:15:37.683Z,14.4
2022-10-25T04:30:47.560Z,14.4
2022-10-25T04:45:57.018Z,14.5
2022-10-25T05:01:06.695Z,14.6
2022-10-25T05:16:16.612Z,14.7
2022-10-25T05:31:26.524Z,14.8
2022-10-25T05:46:36.124Z,14.7
2022-10-25T06:01:45.843Z,14.6
2022-10-25T06:16:56.872Z,14.5
2022-10-25T06:32:07.042Z,14.4
2022-10-25T06:47:17.877Z,14.4
2022-10-25T07:02:27.800Z,14.4
2022-10-25T07:17:38.280Z,14.4
2022-10-25T07:32:52.020Z,14.4
2022-10-25T07:48:02.016Z,14.5
2022-10-25T08:03:11.690Z,14.6
2022-10-25T08:18:21.614Z,14.8
2022-10-25T08:33:31.429Z,14.9
2022-10-25T08:48:41.281Z,15.1
2022-10-25T09:03:51.470Z,15.2
2022-10-25T09:19:01.326Z,15.3
2022-10-25T09:34:10.867Z,15.4
2022-10-25T09:49:20.643Z,15.5
2022-10-25T10:04:33.334Z,15.6
2022-10-25T10:19:43.126Z,15.7
2022-10-25T10:34:53.017Z,15.8
2022-10-25T10:50:02.363Z,15.9
2022-10-25T11:05:11.679Z,16
2022-10-25T11:20:21.751Z,16.2
2022-10-25T11:35:36.705Z,16.3
2022-10-25T11:50:48.201Z,16.6
2022-10-25T12:05:58.251Z,16.7
2022-10-25T12:21:08.891Z,17.4
2022-10-25T12:36:19.453Z,17.5
2022-10-25T12:51:33.632Z,17
2022-10-25T13:06:43.889Z,18.1
2022-10-25T13:21:56.690Z,21.3
2022-10-25T13:37:06.446Z,19.3
2022-10-25T13:52:16.237Z,19
2022-10-25T14:07:25.856Z,17.7
2022-10-25T14:22:34.788Z,17.4
2022-10-25T14:37:44.998Z,17.1
2022-10-25T14:52:55.809Z,16.9
2022-10-25T15:08:10.117Z,16.7
2022-10-25T15:23:19.430Z,16.5
2022-10-25T15:38:37.308Z,16.3
2022-10-25T15:54:26.531Z,16.1
2022-10-25T16:09:36.547Z,15.9
2022-10-25T16:24:46.137Z,15.7
2022-10-25T16:39:54.983Z,15.5
2022-10-25T16:55:04.674Z,15.4
2022-10-25T17:10:14.306Z,15.1
2022-10-25T17:25:23.432Z,15
2022-10-25T17:40:33.894Z,14.9
2022-10-25T17:55:43.523Z,15.2
2022-10-25T18:10:53.392Z,15.8
2022-10-25T18:26:02.486Z,15.6
2022-10-25T18:41:11.879Z,15
2022-10-25T18:56:21.283Z,14.5
2022-10-25T19:11:32.857Z,14.2
2022-10-25T19:26:41.702Z,14.1
2022-10-25T19:41:51.204Z,13.9
2022-10-25T19:57:01.690Z,13.8
2022-10-25T20:12:10.763Z,13.7
2022-10-25T20:27:19.872Z,13.5
2022-10-25T20:42:29.020Z,13.4
2022-10-25T20:57:38.344Z,13.2
2022-10-25T21:12:47.246Z,13.1
2022-10-25T21:27:57.153Z,13
2022-10-25T21:43:06.511Z,12.9
2022-10-25T21:58:16.356Z,12.8
2022-10-25T22:13:25.832Z,12.7
2022-10-25T22:28:36.791Z,12.6
2022-10-25T22:43:50.866Z,12.5
2022-10-25T22:59:00.431Z,12.4
2022-10-25T23:14:13.088Z,12.2
2022-10-25T23:29:26.902Z,12.5
2022-10-25T23:44:36.529Z,12.6
2022-10-25T23:59:46.000Z,12.7
